sensor_id;sensor_type;location;lat;lon;timestamp;pressure;altitude;pressure_sealevel;temperature;humidity
6134;BME280;3098;42.678;23.364;2022-12-07T00:02:01;94917.94;;;4.76;100.00
6134;BME280;3098;42.678;23.364;2022-12-07T00:04:31;94922.66;;;4.79;100.00
6134;BME280;3098;42.678;23.364;2022-12-07T00:07:00;94860.31;;;4.41;100.00
6134;BME280;3098;42.678;23.364;2022-12-07T00:09:29;94916.88;;;4.82;100.00
6134;BME280;3098;42.678;23.364;2022-12-07T00:11:57;94906.13;;;4.74;100.00
6134;BME280;3098;42.678;23.364;2022-12-07T00:14:26;94914.78;;;4.74;100.00
6134;BME280;3098;42.678;23.364;2022-12-07T00:16:55;94912.16;;;4.79;100.00
6134;BME280;3098;42.678;23.364;2022-12-07T00:19:25;94655.41;;;3.14;100.00
6134;BME280;3098;42.678;23.364;2022-12-07T00:21:57;94872.63;;;4.50;100.00
6134;BME280;3098;42.678;23.364;2022-12-07T00:24:25;94884.91;;;4.60;100.00
6134;BME280;3098;42.678;23.364;2022-12-07T00:26:57;94896.84;;;4.86;100.00
6134;BME280;3098;42.678;23.364;2022-12-07T00:29:29;94907.88;;;4.88;100.00
6134;BME280;3098;42.678;23.364;2022-12-07T00:31:57;94910.00;;;4.86;100.00
6134;BME280;3098;42.678;23.364;2022-12-07T00:34:24;94897.91;;;4.90;100.00
6134;BME280;3098;42.678;23.364;2022-12-07T00:36:54;94894.22;;;4.86;100.00
6134;BME280;3098;42.678;23.364;2022-12-07T00:39:26;94897.31;;;4.98;100.00
6134;BME280;3098;42.678;23.364;2022-12-07T00:41:56;94857.50;;;4.76;100.00
6134;BME280;3098;42.678;23.364;2022-12-07T00:44:24;94900.41;;;5.05;100.00
6134;BME280;3098;42.678;23.364;2022-12-07T00:47:00;94895.00;;;4.87;100.00
6134;BME280;3098;42.678;23.364;2022-12-07T00:49:29;94858.09;;;4.63;100.00
6134;BME280;3098;42.678;23.364;2022-12-07T00:51:57;94877.69;;;4.81;100.00
6134;BME280;3098;42.678;23.364;2022-12-07T00:54:30;94874.53;;;4.84;100.00
6134;BME280;3098;42.678;23.364;2022-12-07T00:56:58;94886.63;;;4.85;100.00
6134;BME280;3098;42.678;23.364;2022-12-07T00:59:28;94900.69;;;5.04;100.00
6134;BME280;3098;42.678;23.364;2022-12-07T01:01:57;94865.81;;;4.88;100.00
6134;BME280;3098;42.678;23.364;2022-12-07T01:04:27;94863.81;;;4.75;100.00
6134;BME280;3098;42.678;23.364;2022-12-07T01:06:59;94894.66;;;5.03;100.00
6134;BME280;3098;42.678;23.364;2022-12-07T01:09:30;94816.59;;;4.60;100.00
6134;BME280;3098;42.678;23.364;2022-12-07T01:11:58;94845.16;;;4.77;100.00
6134;BME280;3098;42.678;23.364;2022-12-07T01:14:26;94821.31;;;4.63;100.00
6134;BME280;3098;42.678;23.364;2022-12-07T01:16:54;94852.88;;;5.02;100.00
6134;BME280;3098;42.678;23.364;2022-12-07T01:19:25;94892.69;;;5.24;100.00
6134;BME280;3098;42.678;23.364;2022-12-07T01:21:55;94890.84;;;5.19;100.00
6134;BME280;3098;42.678;23.364;2022-12-07T01:24:23;94895.34;;;5.19;100.00
6134;BME280;3098;42.678;23.364;2022-12-07T01:26:55;94868.66;;;5.02;100.00
6134;BME280;3098;42.678;23.364;2022-12-07T01:29:31;94885.88;;;5.18;100.00
6134;BME280;3098;42.678;23.364;2022-12-07T01:32:00;94881.72;;;5.12;100.00
6134;BME280;3098;42.678;23.364;2022-12-07T01:34:28;94868.56;;;5.12;100.00
6134;BME280;3098;42.678;23.364;2022-12-07T01:36:56;94845.25;;;5.00;100.00
6134;BME280;3098;42.678;23.364;2022-12-07T01:39:24;94841.94;;;4.85;100.00
6134;BME280;3098;42.678;23.364;2022-12-07T01:41:56;94818.19;;;4.61;100.00
6134;BME280;3098;42.678;23.364;2022-12-07T01:44:26;94881.00;;;5.01;100.00
6134;BME280;3098;42.678;23.364;2022-12-07T01:46:56;94804.38;;;4.40;100.00
6134;BME280;3098;42.678;23.364;2022-12-07T01:49:28;94886.75;;;5.03;100.00
6134;BME280;3098;42.678;23.364;2022-12-07T01:52:07;94879.03;;;5.17;100.00
6134;BME280;3098;42.678;23.364;2022-12-07T01:54:37;94794.00;;;4.64;100.00
6134;BME280;3098;42.678;23.364;2022-12-07T01:57:06;94866.97;;;5.11;100.00
6134;BME280;3098;42.678;23.364;2022-12-07T01:59:35;94872.72;;;5.18;100.00
6134;BME280;3098;42.678;23.364;2022-12-07T02:02:07;94842.56;;;5.05;100.00
6134;BME280;3098;42.678;23.364;2022-12-07T02:04:36;94856.16;;;5.17;100.00
6134;BME280;3098;42.678;23.364;2022-12-07T02:07:05;94788.81;;;4.54;100.00
6134;BME280;3098;42.678;23.364;2022-12-07T02:09:32;94745.84;;;4.40;100.00
6134;BME280;3098;42.678;23.364;2022-12-07T02:12:00;94784.03;;;4.61;100.00
6134;BME280;3098;42.678;23.364;2022-12-07T02:14:28;94868.81;;;5.15;100.00
6134;BME280;3098;42.678;23.364;2022-12-07T02:17:05;94867.16;;;5.25;100.00
6134;BME280;3098;42.678;23.364;2022-12-07T02:20:00;94865.03;;;5.27;100.00
6134;BME280;3098;42.678;23.364;2022-12-07T02:23:01;94861.66;;;5.21;100.00
6134;BME280;3098;42.678;23.364;2022-12-07T02:25:50;94863.56;;;5.15;100.00
6134;BME280;3098;42.678;23.364;2022-12-07T02:28:27;94865.44;;;5.10;100.00
6134;BME280;3098;42.678;23.364;2022-12-07T02:31:06;94856.16;;;5.17;100.00
6134;BME280;3098;42.678;23.364;2022-12-07T02:33:42;94849.91;;;5.13;100.00
6134;BME280;3098;42.678;23.364;2022-12-07T02:36:18;94834.28;;;4.88;100.00
6134;BME280;3098;42.678;23.364;2022-12-07T02:38:54;94838.25;;;4.91;100.00
6134;BME280;3098;42.678;23.364;2022-12-07T02:41:27;94828.06;;;4.74;100.00
6134;BME280;3098;42.678;23.364;2022-12-07T02:44:00;94846.59;;;4.98;100.00
6134;BME280;3098;42.678;23.364;2022-12-07T02:46:34;94825.69;;;4.78;100.00
6134;BME280;3098;42.678;23.364;2022-12-07T02:49:05;94832.53;;;4.79;100.00
6134;BME280;3098;42.678;23.364;2022-12-07T02:51:40;94853.69;;;4.97;100.00
6134;BME280;3098;42.678;23.364;2022-12-07T02:54:12;94844.25;;;4.91;100.00
6134;BME280;3098;42.678;23.364;2022-12-07T02:56:47;94844.03;;;4.88;100.00
6134;BME280;3098;42.678;23.364;2022-12-07T02:59:24;94846.97;;;4.81;100.00
6134;BME280;3098;42.678;23.364;2022-12-07T03:02:03;94789.69;;;4.34;100.00
6134;BME280;3098;42.678;23.364;2022-12-07T03:04:42;94834.38;;;4.78;100.00
6134;BME280;3098;42.678;23.364;2022-12-07T03:07:20;94776.31;;;4.36;100.00
6134;BME280;3098;42.678;23.364;2022-12-07T03:09:55;94838.56;;;4.79;100.00
6134;BME280;3098;42.678;23.364;2022-12-07T03:12:31;94821.53;;;4.72;100.00
6134;BME280;3098;42.678;23.364;2022-12-07T03:15:05;94797.47;;;4.59;100.00
6134;BME280;3098;42.678;23.364;2022-12-07T03:17:37;94802.22;;;4.52;100.00
6134;BME280;3098;42.678;23.364;2022-12-07T03:20:09;94828.66;;;4.66;100.00
6134;BME280;3098;42.678;23.364;2022-12-07T03:22:40;94764.88;;;4.17;100.00
6134;BME280;3098;42.678;23.364;2022-12-07T03:25:10;94826.34;;;4.59;100.00
6134;BME280;3098;42.678;23.364;2022-12-07T03:27:42;94792.31;;;4.39;100.00
6134;BME280;3098;42.678;23.364;2022-12-07T03:30:14;94827.09;;;4.60;100.00
6134;BME280;3098;42.678;23.364;2022-12-07T03:32:47;94835.03;;;4.55;100.00
6134;BME280;3098;42.678;23.364;2022-12-07T03:35:20;94834.78;;;4.56;100.00
6134;BME280;3098;42.678;23.364;2022-12-07T03:37:53;94830.34;;;4.47;100.00
6134;BME280;3098;42.678;23.364;2022-12-07T03:40:25;94838.25;;;4.42;100.00
6134;BME280;3098;42.678;23.364;2022-12-07T03:42:53;94832.69;;;4.48;100.00
6134;BME280;3098;42.678;23.364;2022-12-07T03:45:24;94805.75;;;4.28;100.00
6134;BME280;3098;42.678;23.364;2022-12-07T03:48:03;94805.50;;;4.24;100.00
6134;BME280;3098;42.678;23.364;2022-12-07T03:50:38;94806.03;;;4.31;100.00
6134;BME280;3098;42.678;23.364;2022-12-07T03:53:11;94814.91;;;4.35;100.00
6134;BME280;3098;42.678;23.364;2022-12-07T03:55:42;94820.13;;;4.40;100.00
6134;BME280;3098;42.678;23.364;2022-12-07T03:58:13;94825.66;;;4.39;100.00
6134;BME280;3098;42.678;23.364;2022-12-07T04:00:43;94799.19;;;4.30;100.00
6134;BME280;3098;42.678;23.364;2022-12-07T04:03:12;94823.53;;;4.41;100.00
6134;BME280;3098;42.678;23.364;2022-12-07T04:05:39;94758.41;;;3.99;100.00
6134;BME280;3098;42.678;23.364;2022-12-07T04:08:07;94740.06;;;3.89;100.00
6134;BME280;3098;42.678;23.364;2022-12-07T04:10:35;94815.41;;;4.42;100.00
6134;BME280;3098;42.678;23.364;2022-12-07T04:13:02;94793.22;;;4.20;100.00
6134;BME280;3098;42.678;23.364;2022-12-07T04:15:29;94811.59;;;4.15;100.00
6134;BME280;3098;42.678;23.364;2022-12-07T04:17:56;94795.84;;;4.15;100.00
6134;BME280;3098;42.678;23.364;2022-12-07T04:20:25;94810.25;;;4.22;100.00
6134;BME280;3098;42.678;23.364;2022-12-07T04:22:53;94813.69;;;4.13;100.00
6134;BME280;3098;42.678;23.364;2022-12-07T04:25:20;94798.00;;;3.97;100.00
6134;BME280;3098;42.678;23.364;2022-12-07T04:27:47;94823.41;;;4.17;100.00
6134;BME280;3098;42.678;23.364;2022-12-07T04:30:15;94806.13;;;4.01;100.00
6134;BME280;3098;42.678;23.364;2022-12-07T04:32:42;94745.16;;;3.65;100.00
6134;BME280;3098;42.678;23.364;2022-12-07T04:35:09;94769.72;;;3.84;100.00
6134;BME280;3098;42.678;23.364;2022-12-07T04:37:38;94804.84;;;3.98;100.00
6134;BME280;3098;42.678;23.364;2022-12-07T04:40:08;94815.06;;;4.05;100.00
6134;BME280;3098;42.678;23.364;2022-12-07T04:42:36;94748.81;;;3.64;100.00
6134;BME280;3098;42.678;23.364;2022-12-07T04:45:04;94828.44;;;4.03;100.00
6134;BME280;3098;42.678;23.364;2022-12-07T04:47:33;94782.88;;;3.69;100.00
6134;BME280;3098;42.678;23.364;2022-12-07T04:50:01;94837.38;;;3.97;100.00
6134;BME280;3098;42.678;23.364;2022-12-07T04:52:28;94850.22;;;3.99;100.00
6134;BME280;3098;42.678;23.364;2022-12-07T04:54:57;94845.16;;;4.18;100.00
6134;BME280;3098;42.678;23.364;2022-12-07T04:57:24;94817.41;;;4.06;100.00
6134;BME280;3098;42.678;23.364;2022-12-07T04:59:51;94836.75;;;4.21;100.00
6134;BME280;3098;42.678;23.364;2022-12-07T05:02:18;94835.69;;;4.27;100.00
6134;BME280;3098;42.678;23.364;2022-12-07T05:04:45;94836.31;;;4.09;100.00
6134;BME280;3098;42.678;23.364;2022-12-07T05:07:12;94835.50;;;4.03;100.00
6134;BME280;3098;42.678;23.364;2022-12-07T05:09:39;94820.38;;;3.85;100.00
6134;BME280;3098;42.678;23.364;2022-12-07T05:12:08;94841.34;;;3.85;100.00
6134;BME280;3098;42.678;23.364;2022-12-07T05:14:35;94824.38;;;3.62;100.00
6134;BME280;3098;42.678;23.364;2022-12-07T05:17:02;94818.84;;;3.69;100.00
6134;BME280;3098;42.678;23.364;2022-12-07T05:19:29;94788.97;;;3.49;100.00
6134;BME280;3098;42.678;23.364;2022-12-07T05:21:56;94829.56;;;3.72;100.00
6134;BME280;3098;42.678;23.364;2022-12-07T05:24:24;94847.94;;;3.77;100.00
6134;BME280;3098;42.678;23.364;2022-12-07T05:26:51;94825.91;;;3.73;100.00
6134;BME280;3098;42.678;23.364;2022-12-07T05:29:19;94804.97;;;3.63;100.00
6134;BME280;3098;42.678;23.364;2022-12-07T05:31:46;94806.56;;;3.54;100.00
6134;BME280;3098;42.678;23.364;2022-12-07T05:34:13;94837.16;;;3.84;100.00
6134;BME280;3098;42.678;23.364;2022-12-07T05:36:40;94843.69;;;3.96;100.00
6134;BME280;3098;42.678;23.364;2022-12-07T05:39:08;94788.19;;;3.59;100.00
6134;BME280;3098;42.678;23.364;2022-12-07T05:41:37;94825.88;;;3.83;100.00
6134;BME280;3098;42.678;23.364;2022-12-07T05:44:23;94767.22;;;3.44;100.00
6134;BME280;3098;42.678;23.364;2022-12-07T05:46:50;94719.84;;;3.15;100.00
6134;BME280;3098;42.678;23.364;2022-12-07T05:49:17;94846.31;;;3.96;100.00
6134;BME280;3098;42.678;23.364;2022-12-07T05:51:44;94838.38;;;4.06;100.00
6134;BME280;3098;42.678;23.364;2022-12-07T05:54:11;94831.06;;;4.03;100.00
6134;BME280;3098;42.678;23.364;2022-12-07T05:56:38;94810.38;;;3.92;100.00
6134;BME280;3098;42.678;23.364;2022-12-07T05:59:05;94828.72;;;4.02;100.00
6134;BME280;3098;42.678;23.364;2022-12-07T06:01:55;94820.09;;;3.86;100.00
6134;BME280;3098;42.678;23.364;2022-12-07T06:04:24;94826.88;;;4.02;100.00
6134;BME280;3098;42.678;23.364;2022-12-07T06:06:52;94831.03;;;4.14;100.00
6134;BME280;3098;42.678;23.364;2022-12-07T06:09:19;94801.16;;;3.99;100.00
6134;BME280;3098;42.678;23.364;2022-12-07T06:11:48;94769.47;;;3.81;100.00
6134;BME280;3098;42.678;23.364;2022-12-07T06:14:32;94763.72;;;3.79;100.00
6134;BME280;3098;42.678;23.364;2022-12-07T06:17:01;94824.69;;;4.25;100.00
6134;BME280;3098;42.678;23.364;2022-12-07T06:19:28;94837.31;;;4.23;100.00
6134;BME280;3098;42.678;23.364;2022-12-07T06:21:55;94832.22;;;4.41;100.00
6134;BME280;3098;42.678;23.364;2022-12-07T06:24:23;94831.38;;;4.51;100.00
6134;BME280;3098;42.678;23.364;2022-12-07T06:26:50;94818.50;;;4.49;100.00
6134;BME280;3098;42.678;23.364;2022-12-07T06:29:19;94840.25;;;4.65;100.00
6134;BME280;3098;42.678;23.364;2022-12-07T06:31:46;94812.09;;;4.71;100.00
6134;BME280;3098;42.678;23.364;2022-12-07T06:34:17;94814.19;;;4.69;100.00
6134;BME280;3098;42.678;23.364;2022-12-07T06:36:45;94773.06;;;4.54;100.00
6134;BME280;3098;42.678;23.364;2022-12-07T06:39:17;94839.16;;;5.10;100.00
6134;BME280;3098;42.678;23.364;2022-12-07T06:41:44;94814.19;;;5.07;100.00
6134;BME280;3098;42.678;23.364;2022-12-07T06:44:11;94842.59;;;5.39;100.00
6134;BME280;3098;42.678;23.364;2022-12-07T06:46:39;94818.75;;;5.31;100.00
6134;BME280;3098;42.678;23.364;2022-12-07T06:49:06;94847.91;;;5.63;100.00
6134;BME280;3098;42.678;23.364;2022-12-07T06:51:36;94775.25;;;5.09;100.00
6134;BME280;3098;42.678;23.364;2022-12-07T06:54:07;94839.03;;;5.54;100.00
6134;BME280;3098;42.678;23.364;2022-12-07T06:56:35;94825.50;;;5.37;100.00
6134;BME280;3098;42.678;23.364;2022-12-07T06:59:03;94801.50;;;5.43;100.00
6134;BME280;3098;42.678;23.364;2022-12-07T07:01:33;94762.03;;;5.19;100.00
6134;BME280;3098;42.678;23.364;2022-12-07T07:04:01;94763.97;;;5.09;100.00
6134;BME280;3098;42.678;23.364;2022-12-07T07:06:28;94848.97;;;5.62;100.00
6134;BME280;3098;42.678;23.364;2022-12-07T07:08:58;94826.22;;;5.47;100.00
6134;BME280;3098;42.678;23.364;2022-12-07T07:11:25;94815.41;;;5.49;100.00
6134;BME280;3098;42.678;23.364;2022-12-07T07:13:53;94837.16;;;5.88;100.00
6134;BME280;3098;42.678;23.364;2022-12-07T07:16:23;94843.44;;;5.92;100.00
6134;BME280;3098;42.678;23.364;2022-12-07T07:18:50;94817.66;;;6.13;100.00
6134;BME280;3098;42.678;23.364;2022-12-07T07:21:18;94850.81;;;6.38;100.00
6134;BME280;3098;42.678;23.364;2022-12-07T07:23:48;94843.69;;;6.38;100.00
6134;BME280;3098;42.678;23.364;2022-12-07T07:26:17;94849.31;;;6.31;100.00
6134;BME280;3098;42.678;23.364;2022-12-07T07:28:44;94848.00;;;6.53;100.00
6134;BME280;3098;42.678;23.364;2022-12-07T07:31:11;94828.78;;;6.52;100.00
6134;BME280;3098;42.678;23.364;2022-12-07T07:33:39;94827.69;;;6.53;100.00
6134;BME280;3098;42.678;23.364;2022-12-07T07:36:07;94790.19;;;6.19;100.00
6134;BME280;3098;42.678;23.364;2022-12-07T07:38:34;94850.97;;;6.65;100.00
6134;BME280;3098;42.678;23.364;2022-12-07T07:41:01;94849.94;;;7.03;100.00
6134;BME280;3098;42.678;23.364;2022-12-07T07:43:31;94807.94;;;7.07;100.00
6134;BME280;3098;42.678;23.364;2022-12-07T07:45:59;94806.84;;;7.26;100.00
6134;BME280;3098;42.678;23.364;2022-12-07T07:48:27;94831.34;;;7.27;100.00
6134;BME280;3098;42.678;23.364;2022-12-07T07:50:54;94853.09;;;7.83;100.00
6134;BME280;3098;42.678;23.364;2022-12-07T07:53:21;94840.00;;;7.92;100.00
6134;BME280;3098;42.678;23.364;2022-12-07T07:55:52;94829.00;;;8.44;100.00
6134;BME280;3098;42.678;23.364;2022-12-07T07:58:20;94833.28;;;9.25;100.00
6134;BME280;3098;42.678;23.364;2022-12-07T08:00:49;94811.84;;;8.91;100.00
6134;BME280;3098;42.678;23.364;2022-12-07T08:03:17;94841.00;;;9.36;100.00
6134;BME280;3098;42.678;23.364;2022-12-07T08:05:49;94823.38;;;9.31;100.00
6134;BME280;3098;42.678;23.364;2022-12-07T08:08:19;94852.31;;;9.72;100.00
6134;BME280;3098;42.678;23.364;2022-12-07T08:10:46;94699.03;;;8.64;100.00
6134;BME280;3098;42.678;23.364;2022-12-07T08:13:15;94851.88;;;9.34;100.00
6134;BME280;3098;42.678;23.364;2022-12-07T08:15:44;94850.41;;;9.06;100.00
6134;BME280;3098;42.678;23.364;2022-12-07T08:18:14;94674.53;;;7.87;100.00
6134;BME280;3098;42.678;23.364;2022-12-07T08:20:42;94737.91;;;8.64;100.00
6134;BME280;3098;42.678;23.364;2022-12-07T08:23:10;94823.22;;;8.92;100.00
6134;BME280;3098;42.678;23.364;2022-12-07T08:25:39;94847.03;;;8.92;100.00
6134;BME280;3098;42.678;23.364;2022-12-07T08:28:07;94836.63;;;9.84;100.00
6134;BME280;3098;42.678;23.364;2022-12-07T08:30:35;94827.78;;;11.53;100.00
6134;BME280;3098;42.678;23.364;2022-12-07T08:33:03;94832.06;;;12.00;94.63
6134;BME280;3098;42.678;23.364;2022-12-07T08:35:34;94850.91;;;10.92;98.53
6134;BME280;3098;42.678;23.364;2022-12-07T08:38:02;94854.03;;;10.29;100.00
6134;BME280;3098;42.678;23.364;2022-12-07T08:40:30;94851.72;;;9.31;100.00
6134;BME280;3098;42.678;23.364;2022-12-07T08:43:01;94844.53;;;8.73;100.00
6134;BME280;3098;42.678;23.364;2022-12-07T08:45:31;94842.88;;;8.63;100.00
6134;BME280;3098;42.678;23.364;2022-12-07T08:48:03;94840.53;;;8.21;100.00
6134;BME280;3098;42.678;23.364;2022-12-07T08:50:36;94800.28;;;7.83;100.00
6134;BME280;3098;42.678;23.364;2022-12-07T08:53:05;94786.03;;;7.71;100.00
6134;BME280;3098;42.678;23.364;2022-12-07T08:55:34;94830.59;;;7.72;100.00
6134;BME280;3098;42.678;23.364;2022-12-07T08:58:03;94827.69;;;8.01;100.00
6134;BME280;3098;42.678;23.364;2022-12-07T09:00:33;94754.13;;;7.53;100.00
6134;BME280;3098;42.678;23.364;2022-12-07T09:03:01;94796.88;;;8.10;100.00
6134;BME280;3098;42.678;23.364;2022-12-07T09:05:28;94821.94;;;8.26;100.00
6134;BME280;3098;42.678;23.364;2022-12-07T09:08:00;94817.13;;;8.15;100.00
6134;BME280;3098;42.678;23.364;2022-12-07T09:10:28;94825.47;;;8.22;100.00
6134;BME280;3098;42.678;23.364;2022-12-07T09:12:56;94791.34;;;8.12;100.00
6134;BME280;3098;42.678;23.364;2022-12-07T09:15:26;94801.28;;;8.01;100.00
6134;BME280;3098;42.678;23.364;2022-12-07T09:17:54;94815.09;;;8.12;100.00
6134;BME280;3098;42.678;23.364;2022-12-07T09:20:21;94781.75;;;7.88;100.00
6134;BME280;3098;42.678;23.364;2022-12-07T09:22:49;94750.72;;;7.67;100.00
6134;BME280;3098;42.678;23.364;2022-12-07T09:25:19;94815.19;;;8.06;100.00
6134;BME280;3098;42.678;23.364;2022-12-07T09:27:52;94808.16;;;8.02;100.00
6134;BME280;3098;42.678;23.364;2022-12-07T09:30:22;94765.59;;;8.17;100.00
6134;BME280;3098;42.678;23.364;2022-12-07T09:32:51;94780.16;;;8.42;100.00
6134;BME280;3098;42.678;23.364;2022-12-07T09:35:19;94807.47;;;8.51;100.00
6134;BME280;3098;42.678;23.364;2022-12-07T09:37:47;94789.16;;;8.41;100.00
6134;BME280;3098;42.678;23.364;2022-12-07T09:40:17;94738.41;;;7.89;100.00
6134;BME280;3098;42.678;23.364;2022-12-07T09:42:53;94690.69;;;7.86;100.00
6134;BME280;3098;42.678;23.364;2022-12-07T09:45:23;94715.50;;;7.98;100.00
6134;BME280;3098;42.678;23.364;2022-12-07T09:47:54;94692.75;;;7.89;100.00
6134;BME280;3098;42.678;23.364;2022-12-07T09:50:26;94777.59;;;8.50;100.00
6134;BME280;3098;42.678;23.364;2022-12-07T09:53:01;94776.31;;;8.61;100.00
6134;BME280;3098;42.678;23.364;2022-12-07T09:55:33;94753.44;;;8.43;100.00
6134;BME280;3098;42.678;23.364;2022-12-07T09:58:02;94774.69;;;8.25;100.00
6134;BME280;3098;42.678;23.364;2022-12-07T10:00:29;94754.72;;;8.19;100.00
6134;BME280;3098;42.678;23.364;2022-12-07T10:02:59;94752.75;;;8.24;100.00
6134;BME280;3098;42.678;23.364;2022-12-07T10:05:30;94706.78;;;8.25;100.00
6134;BME280;3098;42.678;23.364;2022-12-07T10:07:58;94767.25;;;8.76;100.00
6134;BME280;3098;42.678;23.364;2022-12-07T10:10:28;94754.56;;;8.87;100.00
6134;BME280;3098;42.678;23.364;2022-12-07T10:12:59;94760.81;;;9.35;100.00
6134;BME280;3098;42.678;23.364;2022-12-07T10:15:48;94696.81;;;8.80;100.00
6134;BME280;3098;42.678;23.364;2022-12-07T10:18:27;94741.88;;;8.97;100.00
6134;BME280;3098;42.678;23.364;2022-12-07T10:21:13;94742.25;;;8.82;100.00
6134;BME280;3098;42.678;23.364;2022-12-07T10:23:59;94739.19;;;9.11;100.00
6134;BME280;3098;42.678;23.364;2022-12-07T10:26:35;94731.16;;;9.47;100.00
6134;BME280;3098;42.678;23.364;2022-12-07T10:29:21;94745.69;;;9.58;100.00
6134;BME280;3098;42.678;23.364;2022-12-07T10:31:54;94588.25;;;8.54;100.00
6134;BME280;3098;42.678;23.364;2022-12-07T10:34:24;94690.22;;;10.09;100.00
6134;BME280;3098;42.678;23.364;2022-12-07T10:36:53;94729.44;;;10.38;100.00
6134;BME280;3098;42.678;23.364;2022-12-07T10:39:21;94691.38;;;10.34;100.00
6134;BME280;3098;42.678;23.364;2022-12-07T10:41:54;94714.94;;;10.27;100.00
6134;BME280;3098;42.678;23.364;2022-12-07T10:44:26;94716.94;;;10.13;100.00
6134;BME280;3098;42.678;23.364;2022-12-07T10:47:23;94707.75;;;9.79;100.00
6134;BME280;3098;42.678;23.364;2022-12-07T10:50:07;94640.50;;;9.41;100.00
6134;BME280;3098;42.678;23.364;2022-12-07T10:52:50;94555.09;;;9.18;100.00
6134;BME280;3098;42.678;23.364;2022-12-07T10:55:25;94624.72;;;9.28;100.00
6134;BME280;3098;42.678;23.364;2022-12-07T10:58:05;94693.25;;;9.77;100.00
6134;BME280;3098;42.678;23.364;2022-12-07T11:00:39;94665.47;;;9.57;100.00
6134;BME280;3098;42.678;23.364;2022-12-07T11:06:19;94623.44;;;9.64;100.00
6134;BME280;3098;42.678;23.364;2022-12-07T11:09:03;94678.22;;;10.12;100.00
6134;BME280;3098;42.678;23.364;2022-12-07T11:11:34;94674.31;;;10.01;100.00
6134;BME280;3098;42.678;23.364;2022-12-07T11:14:13;94696.41;;;9.79;100.00
6134;BME280;3098;42.678;23.364;2022-12-07T11:16:55;94656.78;;;9.74;100.00
6134;BME280;3098;42.678;23.364;2022-12-07T11:19:44;94482.31;;;8.42;100.00
6134;BME280;3098;42.678;23.364;2022-12-07T11:22:23;94609.50;;;9.33;100.00
6134;BME280;3098;42.678;23.364;2022-12-07T11:25:00;94668.47;;;9.64;100.00
6134;BME280;3098;42.678;23.364;2022-12-07T11:27:36;94627.19;;;9.72;100.00
6134;BME280;3098;42.678;23.364;2022-12-07T11:30:14;94656.03;;;9.91;100.00
6134;BME280;3098;42.678;23.364;2022-12-07T11:33:10;94652.63;;;9.90;100.00
6134;BME280;3098;42.678;23.364;2022-12-07T11:35:47;94639.97;;;9.70;100.00
6134;BME280;3098;42.678;23.364;2022-12-07T11:38:22;94651.69;;;9.95;100.00
6134;BME280;3098;42.678;23.364;2022-12-07T11:40:58;94610.22;;;9.64;100.00
6134;BME280;3098;42.678;23.364;2022-12-07T11:43:50;94569.34;;;9.48;100.00
6134;BME280;3098;42.678;23.364;2022-12-07T11:46:25;94642.50;;;9.92;100.00
6134;BME280;3098;42.678;23.364;2022-12-07T11:49:01;94639.19;;;9.69;100.00
6134;BME280;3098;42.678;23.364;2022-12-07T11:51:36;94636.56;;;9.30;100.00
6134;BME280;3098;42.678;23.364;2022-12-07T11:54:12;94564.44;;;8.77;100.00
6134;BME280;3098;42.678;23.364;2022-12-07T11:56:43;94566.63;;;8.52;100.00
6134;BME280;3098;42.678;23.364;2022-12-07T11:59:19;94552.38;;;8.62;100.00
6134;BME280;3098;42.678;23.364;2022-12-07T12:01:54;94506.28;;;8.77;100.00
6134;BME280;3098;42.678;23.364;2022-12-07T12:04:32;94564.94;;;9.27;100.00
6134;BME280;3098;42.678;23.364;2022-12-07T12:07:06;94575.66;;;9.95;100.00
6134;BME280;3098;42.678;23.364;2022-12-07T12:09:45;94515.34;;;9.75;100.00
6134;BME280;3098;42.678;23.364;2022-12-07T12:12:34;94596.72;;;10.17;100.00
6134;BME280;3098;42.678;23.364;2022-12-07T12:15:26;94611.00;;;9.91;100.00
6134;BME280;3098;42.678;23.364;2022-12-07T12:18:26;94602.91;;;9.78;100.00
6134;BME280;3098;42.678;23.364;2022-12-07T12:21:00;94470.53;;;8.88;100.00
6134;BME280;3098;42.678;23.364;2022-12-07T12:23:37;94542.81;;;9.22;100.00
6134;BME280;3098;42.678;23.364;2022-12-07T12:26:12;94563.97;;;9.22;100.00
6134;BME280;3098;42.678;23.364;2022-12-07T12:28:52;94579.84;;;9.62;100.00
6134;BME280;3098;42.678;23.364;2022-12-07T12:31:34;94509.97;;;9.15;100.00
6134;BME280;3098;42.678;23.364;2022-12-07T12:34:04;94591.09;;;9.28;100.00
6134;BME280;3098;42.678;23.364;2022-12-07T12:36:46;94591.44;;;9.35;100.00
6134;BME280;3098;42.678;23.364;2022-12-07T12:39:17;94585.13;;;9.14;100.00
6134;BME280;3098;42.678;23.364;2022-12-07T12:41:58;94471.91;;;8.46;100.00
6134;BME280;3098;42.678;23.364;2022-12-07T12:45:17;94460.25;;;8.47;100.00
6134;BME280;3098;42.678;23.364;2022-12-07T12:47:57;94570.44;;;9.47;100.00
6134;BME280;3098;42.678;23.364;2022-12-07T12:50:27;94504.72;;;9.32;100.00
6134;BME280;3098;42.678;23.364;2022-12-07T12:53:20;94566.94;;;9.95;100.00
6134;BME280;3098;42.678;23.364;2022-12-07T12:59:18;94553.81;;;11.05;99.85
6134;BME280;3098;42.678;23.364;2022-12-07T13:01:50;94546.97;;;11.04;98.55
6134;BME280;3098;42.678;23.364;2022-12-07T13:04:39;94562.78;;;11.29;97.22
6134;BME280;3098;42.678;23.364;2022-12-07T13:10:23;94580.56;;;11.37;96.28
6134;BME280;3098;42.678;23.364;2022-12-07T13:12:57;94445.16;;;10.79;95.42
6134;BME280;3098;42.678;23.364;2022-12-07T13:15:35;94555.38;;;11.73;94.85
6134;BME280;3098;42.678;23.364;2022-12-07T13:18:24;94568.47;;;11.78;93.93
6134;BME280;3098;42.678;23.364;2022-12-07T13:20:55;94543.81;;;11.39;95.11
6134;BME280;3098;42.678;23.364;2022-12-07T13:23:29;94523.91;;;11.25;95.26
6134;BME280;3098;42.678;23.364;2022-12-07T13:26:17;94503.59;;;11.00;95.24
6134;BME280;3098;42.678;23.364;2022-12-07T13:28:51;94579.41;;;11.09;98.19
6134;BME280;3098;42.678;23.364;2022-12-07T13:31:30;94576.78;;;11.01;98.57
6134;BME280;3098;42.678;23.364;2022-12-07T13:34:00;94550.59;;;10.90;99.37
6134;BME280;3098;42.678;23.364;2022-12-07T13:36:31;94573.69;;;10.90;100.00
6134;BME280;3098;42.678;23.364;2022-12-07T13:39:16;94419.38;;;9.78;100.00
6134;BME280;3098;42.678;23.364;2022-12-07T13:41:49;94554.31;;;10.34;100.00
6134;BME280;3098;42.678;23.364;2022-12-07T13:44:20;94563.97;;;10.39;100.00
6134;BME280;3098;42.678;23.364;2022-12-07T13:46:54;94562.53;;;10.50;100.00